createdAt,value
2022-11-28T00:01:43.295Z,5.10
2022-11-28T00:04:14.311Z,4.55
2022-11-28T00:06:47.045Z,4.22
2022-11-28T00:09:18.137Z,3.42
2022-11-28T00:11:47.647Z,3.65
2022-11-28T00:14:18.369Z,3.30
2022-11-28T00:16:46.539Z,3.67
2022-11-28T00:19:14.378Z,4.63
2022-11-28T00:21:42.019Z,3.95
2022-11-28T00:24:09.816Z,2.63
2022-11-28T00:26:40.405Z,2.95
2022-11-28T00:29:08.869Z,3.00
2022-11-28T00:31:43.168Z,4.47
2022-11-28T00:34:12.605Z,4.38
2022-11-28T00:36:42.669Z,3.50
2022-11-28T00:39:09.994Z,3.58
2022-11-28T00:41:37.303Z,2.83
2022-11-28T00:44:05.008Z,3.47
2022-11-28T00:46:32.291Z,3.88
2022-11-28T00:48:59.855Z,3.00
2022-11-28T00:51:33.871Z,3.45
2022-11-28T00:54:04.180Z,3.25
2022-11-28T00:56:36.849Z,4.28
2022-11-28T00:59:07.275Z,2.73
2022-11-28T01:01:41.361Z,3.55
2022-11-28T01:04:11.419Z,3.97
2022-11-28T01:06:47.479Z,2.70
2022-11-28T01:09:20.479Z,4.30
2022-11-28T01:11:52.410Z,3.40
2022-11-28T01:14:24.994Z,5.07
2022-11-28T01:16:52.589Z,2.53
2022-11-28T01:19:21.230Z,3.80
2022-11-28T01:21:49.099Z,3.25
2022-11-28T01:24:16.562Z,2.63
2022-11-28T01:26:43.748Z,3.17
2022-11-28T01:29:11.759Z,3.72
2022-11-28T01:31:39.866Z,3.83
2022-11-28T01:34:10.262Z,3.67
2022-11-28T01:36:37.502Z,4.70
2022-11-28T01:39:07.265Z,5.28
2022-11-28T01:41:37.055Z,6.07
2022-11-28T01:44:06.631Z,3.55
2022-11-28T01:46:35.277Z,3.45
2022-11-28T01:49:19.763Z,3.90
2022-11-28T01:51:50.544Z,3.72
2022-11-28T01:54:20.530Z,5.60
2022-11-28T01:56:55.124Z,5.47
2022-11-28T01:59:26.586Z,5.68
2022-11-28T02:01:54.280Z,6.43
2022-11-28T02:04:22.582Z,4.07
2022-11-28T02:06:49.743Z,4.13
2022-11-28T02:09:17.247Z,4.35
2022-11-28T02:11:44.395Z,4.25
2022-11-28T02:14:23.289Z,5.70
2022-11-28T02:17:08.615Z,6.30
2022-11-28T02:20:20.072Z,5.40
2022-11-28T02:23:05.284Z,3.33
2022-11-28T02:25:38.579Z,4.88
2022-11-28T02:28:31.528Z,6.05
2022-11-28T02:31:17.557Z,5.57
2022-11-28T02:33:56.946Z,6.95
2022-11-28T02:36:47.256Z,5.97
2022-11-28T02:39:39.935Z,5.53
2022-11-28T02:42:10.671Z,6.00
2022-11-28T02:44:52.185Z,5.38
2022-11-28T02:47:33.990Z,5.47
2022-11-28T02:50:24.769Z,7.43
2022-11-28T02:52:57.648Z,6.90
2022-11-28T02:55:25.894Z,6.80
2022-11-28T02:57:55.409Z,4.85
2022-11-28T03:00:27.987Z,4.60
2022-11-28T03:03:28.766Z,4.73
2022-11-28T03:06:24.459Z,5.15
2022-11-28T03:09:24.946Z,4.00
2022-11-28T03:12:26.084Z,5.07
2022-11-28T03:15:00.435Z,5.28
2022-11-28T03:17:38.703Z,5.13
2022-11-28T03:20:15.111Z,4.65
2022-11-28T03:22:58.433Z,6.70
2022-11-28T03:25:31.699Z,4.38
2022-11-28T03:28:23.494Z,5.47
2022-11-28T03:30:59.027Z,4.00
2022-11-28T03:33:32.146Z,8.60
2022-11-28T03:36:11.626Z,6.60
2022-11-28T03:38:42.831Z,4.50
2022-11-28T03:41:20.777Z,4.55
2022-11-28T03:43:55.151Z,4.63
2022-11-28T03:46:29.215Z,4.18
2022-11-28T03:49:00.402Z,5.05
2022-11-28T03:51:40.003Z,5.88
2022-11-28T03:54:34.532Z,4.55
2022-11-28T03:57:13.924Z,3.30
2022-11-28T03:59:49.082Z,4.13
2022-11-28T04:02:37.236Z,3.53
2022-11-28T04:05:28.027Z,3.58
2022-11-28T04:08:00.064Z,4.45
2022-11-28T04:10:36.783Z,4.28
2022-11-28T04:13:20.041Z,4.43
2022-11-28T04:15:53.005Z,5.97
2022-11-28T04:18:33.502Z,6.13
2022-11-28T04:21:33.017Z,5.10
2022-11-28T04:24:09.057Z,4.38
2022-11-28T04:26:47.425Z,4.07
2022-11-28T04:29:18.795Z,5.47
2022-11-28T04:31:48.942Z,5.07
2022-11-28T04:34:21.390Z,4.10
2022-11-28T04:36:49.943Z,4.55
2022-11-28T04:39:23.319Z,6.00
2022-11-28T04:41:55.516Z,4.20
2022-11-28T04:44:29.434Z,4.55
2022-11-28T04:47:00.773Z,3.35
2022-11-28T04:49:31.843Z,4.18
2022-11-28T04:52:21.362Z,3.92
2022-11-28T04:55:01.576Z,5.65
2022-11-28T04:57:35.158Z,4.15
2022-11-28T05:00:05.500Z,5.88
2022-11-28T05:02:33.943Z,3.92
2022-11-28T05:05:01.929Z,3.05
2022-11-28T05:07:29.209Z,4.60
2022-11-28T05:09:57.656Z,4.72
2022-11-28T05:12:27.113Z,3.80
2022-11-28T05:14:54.743Z,3.20
2022-11-28T05:17:24.543Z,3.63
2022-11-28T05:19:51.832Z,4.07
2022-11-28T05:22:21.571Z,3.70
2022-11-28T05:24:48.802Z,4.57
2022-11-28T05:27:19.183Z,3.67
2022-11-28T05:29:51.868Z,4.70
2022-11-28T05:32:24.624Z,4.90
2022-11-28T05:34:51.869Z,5.63
2022-11-28T05:37:19.067Z,4.07
2022-11-28T05:39:46.275Z,3.72
2022-11-28T05:42:13.477Z,4.70
2022-11-28T05:44:41.226Z,5.07
2022-11-28T05:47:08.441Z,4.10
2022-11-28T05:49:35.694Z,4.00
2022-11-28T05:52:05.580Z,5.15
2022-11-28T05:54:32.988Z,5.22
2022-11-28T05:57:02.869Z,4.82
2022-11-28T05:59:30.071Z,4.82
2022-11-28T06:01:57.392Z,5.13
2022-11-28T06:04:24.689Z,8.30
2022-11-28T06:06:54.479Z,6.18
2022-11-28T06:09:25.614Z,5.97
2022-11-28T06:11:53.630Z,6.97
2022-11-28T06:14:20.854Z,6.00
2022-11-28T06:16:48.193Z,5.22
2022-11-28T06:19:15.717Z,6.65
2022-11-28T06:21:43.569Z,5.63
2022-11-28T06:24:13.439Z,6.00
2022-11-28T06:26:47.826Z,6.10
2022-11-28T06:29:15.616Z,5.85
2022-11-28T06:31:43.433Z,8.75
2022-11-28T06:34:13.128Z,7.60
2022-11-28T06:36:44.251Z,7.78
2022-11-28T06:39:17.952Z,9.98
2022-11-28T06:41:47.370Z,7.13
2022-11-28T06:44:17.299Z,10.95
2022-11-28T06:46:44.520Z,7.80
2022-11-28T06:49:16.278Z,7.85
2022-11-28T06:51:45.747Z,7.82
2022-11-28T06:54:13.119Z,7.72
2022-11-28T06:56:43.171Z,9.48
2022-11-28T06:59:14.337Z,7.80
2022-11-28T07:01:44.155Z,7.60
2022-11-28T07:04:11.838Z,9.77
2022-11-28T07:06:39.477Z,8.25
2022-11-28T07:09:06.763Z,7.50
2022-11-28T07:11:34.502Z,7.75
2022-11-28T07:14:02.620Z,7.55
2022-11-28T07:16:34.826Z,7.78
2022-11-28T07:19:03.006Z,8.10
2022-11-28T07:21:33.226Z,8.07
2022-11-28T07:24:00.811Z,8.75
2022-11-28T07:26:28.146Z,8.55
2022-11-28T07:28:58.266Z,7.07
2022-11-28T07:31:28.739Z,7.13
2022-11-28T07:33:58.812Z,8.07
2022-11-28T07:36:28.228Z,8.68
2022-11-28T07:39:00.919Z,7.45
2022-11-28T07:41:31.680Z,7.60
2022-11-28T07:44:01.695Z,8.57
2022-11-28T07:46:31.096Z,8.57
2022-11-28T07:49:01.043Z,6.30
2022-11-28T07:51:33.965Z,6.05
2022-11-28T07:54:02.258Z,9.00
2022-11-28T07:59:21.352Z,6.20
2022-11-28T08:01:53.740Z,6.97
2022-11-28T08:04:21.389Z,5.68
2022-11-28T08:06:49.232Z,5.22
2022-11-28T08:09:19.383Z,5.13
2022-11-28T08:11:51.276Z,4.57
2022-11-28T08:14:19.038Z,6.15
2022-11-28T08:16:46.823Z,5.55
2022-11-28T08:19:14.504Z,6.03
2022-11-28T08:21:46.338Z,5.03
2022-11-28T08:24:16.019Z,5.13
2022-11-28T08:26:43.198Z,6.53
2022-11-28T08:29:13.072Z,6.00
2022-11-28T08:31:40.652Z,5.38
2022-11-28T08:34:10.649Z,5.80
2022-11-28T08:36:38.011Z,10.32
2022-11-28T08:39:25.084Z,6.95
2022-11-28T08:41:57.068Z,7.03
2022-11-28T08:44:24.440Z,8.10
2022-11-28T08:46:59.303Z,6.57
2022-11-28T08:49:26.515Z,7.50
2022-11-28T08:51:53.928Z,5.85
2022-11-28T08:54:21.107Z,7.32
2022-11-28T08:56:50.852Z,7.30
2022-11-28T08:59:18.657Z,6.90
2022-11-28T09:01:48.311Z,8.23
2022-11-28T09:04:16.207Z,8.73
2022-11-28T09:06:43.927Z,11.10
2022-11-28T09:09:11.481Z,9.63
2022-11-28T09:11:44.583Z,11.77
2022-11-28T09:14:12.251Z,10.90
2022-11-28T09:16:40.863Z,12.93
2022-11-28T09:19:10.820Z,9.10
2022-11-28T09:21:38.658Z,8.25
2022-11-28T09:24:09.456Z,9.70
2022-11-28T09:26:37.099Z,10.50
2022-11-28T09:29:04.328Z,9.57
2022-11-28T09:31:31.678Z,15.45
2022-11-28T09:33:58.969Z,13.98
2022-11-28T09:36:28.188Z,11.00
2022-11-28T09:38:58.329Z,11.13
2022-11-28T09:41:31.370Z,11.68
2022-11-28T09:44:20.102Z,8.55
2022-11-28T09:46:53.112Z,9.10
2022-11-28T09:49:41.492Z,7.50
2022-11-28T09:52:29.816Z,8.20
2022-11-28T09:55:27.081Z,12.10
2022-11-28T09:57:54.616Z,11.85
2022-11-28T10:00:34.523Z,7.80
2022-11-28T10:03:17.336Z,16.52
2022-11-28T10:05:59.450Z,12.43
2022-11-28T10:08:58.152Z,12.15
2022-11-28T10:11:42.094Z,19.73
2022-11-28T10:14:18.775Z,10.70
2022-11-28T10:16:51.901Z,10.07
2022-11-28T10:19:53.357Z,10.13
2022-11-28T10:22:25.450Z,13.80
2022-11-28T10:24:57.441Z,9.52
2022-11-28T10:27:33.912Z,13.80
2022-11-28T10:30:15.717Z,9.93
2022-11-28T10:32:49.140Z,12.40
2022-11-28T10:35:47.472Z,10.10
2022-11-28T10:38:16.314Z,12.77
2022-11-28T10:41:20.640Z,11.10
2022-11-28T10:46:57.892Z,13.18
2022-11-28T10:49:56.434Z,14.82
2022-11-28T10:52:35.676Z,12.50
2022-11-28T10:55:30.339Z,13.73
2022-11-28T10:58:10.038Z,8.98
2022-11-28T11:00:40.728Z,12.02
2022-11-28T11:03:13.993Z,11.13
2022-11-28T11:05:41.883Z,13.38
2022-11-28T11:08:22.629Z,12.18
2022-11-28T11:10:56.128Z,11.80
2022-11-28T11:13:26.546Z,10.80
2022-11-28T11:16:03.678Z,11.27
2022-11-28T11:18:50.314Z,8.30
2022-11-28T11:21:31.032Z,12.32
2022-11-28T11:24:18.372Z,11.52
2022-11-28T11:26:48.796Z,11.48
2022-11-28T11:29:29.268Z,8.35
2022-11-28T11:32:03.676Z,9.38
2022-11-28T11:34:37.787Z,14.07
2022-11-28T11:37:33.381Z,9.80
2022-11-28T11:40:02.610Z,12.45
2022-11-28T11:42:33.941Z,12.77
2022-11-28T11:45:24.192Z,11.20
2022-11-28T11:47:51.473Z,11.90
2022-11-28T11:50:21.338Z,17.48
2022-11-28T11:53:14.034Z,13.32
2022-11-28T11:55:55.796Z,13.13
2022-11-28T11:58:27.884Z,12.20
2022-11-28T12:01:00.122Z,10.43
2022-11-28T12:03:55.531Z,7.15
2022-11-28T12:06:32.704Z,13.40
2022-11-28T12:09:26.909Z,12.95
2022-11-28T12:12:13.858Z,11.27
2022-11-28T12:14:46.562Z,11.70
2022-11-28T12:17:58.347Z,11.63
2022-11-28T12:20:42.949Z,12.30
2022-11-28T12:23:41.819Z,11.95
2022-11-28T12:26:34.233Z,11.07
2022-11-28T12:29:28.529Z,14.48
2022-11-28T12:32:13.237Z,11.95
2022-11-28T12:35:02.880Z,12.88
2022-11-28T12:38:09.694Z,16.75
2022-11-28T12:40:52.581Z,13.15
2022-11-28T12:43:25.029Z,14.75
2022-11-28T12:46:24.712Z,12.93
2022-11-28T12:48:58.906Z,20.42
2022-11-28T12:51:44.264Z,12.20
2022-11-28T12:54:29.598Z,12.27
2022-11-28T12:57:12.933Z,10.02
2022-11-28T13:00:09.220Z,10.90
2022-11-28T13:03:08.273Z,19.70
2022-11-28T13:06:07.526Z,14.18
2022-11-28T13:08:48.684Z,12.75
2022-11-28T13:11:25.072Z,11.68
2022-11-28T13:14:03.219Z,15.88
2022-11-28T13:16:36.267Z,12.00
2022-11-28T13:19:21.274Z,9.90
2022-11-28T13:22:14.974Z,15.57
2022-11-28T13:25:09.836Z,9.82
2022-11-28T13:27:52.886Z,14.38
2022-11-28T13:30:25.882Z,14.68
2022-11-28T13:33:35.359Z,10.88
2022-11-28T13:36:10.688Z,10.85
2022-11-28T13:39:12.460Z,14.63
2022-11-28T13:45:01.151Z,16.80
2022-11-28T13:47:32.674Z,14.30
2022-11-28T13:50:34.913Z,15.20
2022-11-28T13:53:12.602Z,16.70
2022-11-28T13:55:41.709Z,17.92
2022-11-28T13:58:28.634Z,11.48
2022-11-28T14:01:10.664Z,15.13
2022-11-28T14:04:03.354Z,12.60
2022-11-28T14:06:49.418Z,13.75
2022-11-28T14:09:36.665Z,15.23
2022-11-28T14:12:42.710Z,14.10
2022-11-28T14:15:24.185Z,13.15
2022-11-28T14:18:31.641Z,13.30
2022-11-28T14:21:07.502Z,15.77
2022-11-28T14:24:06.590Z,13.07
2022-11-28T14:26:37.618Z,12.20
2022-11-28T14:29:18.605Z,15.18
2022-11-28T14:32:13.721Z,14.88
2022-11-28T14:34:49.015Z,16.30
2022-11-28T14:37:35.684Z,14.48
2022-11-28T14:40:03.794Z,9.50
2022-11-28T14:45:45.215Z,16.88
2022-11-28T14:48:31.526Z,13.95
2022-11-28T14:51:02.460Z,9.93
2022-11-28T14:53:44.784Z,14.93
2022-11-28T14:56:15.043Z,14.05
2022-11-28T14:58:49.721Z,11.40
2022-11-28T15:01:38.507Z,12.80
2022-11-28T15:04:37.581Z,11.00
2022-11-28T15:07:23.868Z,12.55
2022-11-28T15:10:22.731Z,17.13
2022-11-28T15:13:15.459Z,11.18
2022-11-28T15:15:51.288Z,12.45
2022-11-28T15:18:21.248Z,12.02
2022-11-28T15:20:58.646Z,11.10
2022-11-28T15:23:38.361Z,10.27
2022-11-28T15:26:30.560Z,14.40
2022-11-28T15:29:22.728Z,14.25
2022-11-28T15:31:53.160Z,12.80
2022-11-28T15:34:34.013Z,14.02
2022-11-28T15:37:06.073Z,13.90
2022-11-28T15:39:39.922Z,11.82
2022-11-28T15:42:28.790Z,12.05
2022-11-28T15:45:17.102Z,9.50
2022-11-28T15:47:49.250Z,16.73
2022-11-28T15:50:20.882Z,9.70
2022-11-28T15:53:02.956Z,18.95
2022-11-28T15:55:38.691Z,12.05
2022-11-28T15:58:23.450Z,13.82
2022-11-28T16:01:05.464Z,9.93
2022-11-28T16:03:37.746Z,11.73
2022-11-28T16:06:06.146Z,15.75
2022-11-28T16:08:47.727Z,17.98
2022-11-28T16:11:19.768Z,12.82
2022-11-28T16:13:50.055Z,11.85
2022-11-28T16:16:22.549Z,11.55
2022-11-28T16:18:58.451Z,13.20
2022-11-28T16:21:33.714Z,14.65
2022-11-28T16:24:01.847Z,14.77
2022-11-28T16:26:37.527Z,13.82
2022-11-28T16:29:10.439Z,14.98
2022-11-28T16:31:38.302Z,12.48
2022-11-28T16:34:06.256Z,11.50
2022-11-28T16:36:38.878Z,12.00
2022-11-28T16:39:14.336Z,16.10
2022-11-28T16:42:16.739Z,13.13
2022-11-28T16:44:44.725Z,14.38
2022-11-28T16:47:33.158Z,13.70
2022-11-28T16:50:15.354Z,16.88
2022-11-28T16:53:29.614Z,8.43
2022-11-28T16:55:59.272Z,17.80
2022-11-28T16:58:29.030Z,16.02
2022-11-28T17:01:02.646Z,20.35
2022-11-28T17:03:46.990Z,13.18
2022-11-28T17:06:22.848Z,13.48
2022-11-28T17:08:50.491Z,20.92
2022-11-28T17:11:21.239Z,19.75
2022-11-28T17:13:57.244Z,18.10
2022-11-28T17:16:28.174Z,19.30
2022-11-28T17:18:56.126Z,17.45
2022-11-28T17:21:34.723Z,19.70
2022-11-28T17:24:02.518Z,26.20
2022-11-28T17:26:30.443Z,20.58
2022-11-28T17:28:59.040Z,23.40
2022-11-28T17:31:26.433Z,18.02
2022-11-28T17:33:53.721Z,15.80
2022-11-28T17:36:21.359Z,20.05
2022-11-28T17:38:48.577Z,16.38
2022-11-28T17:41:16.231Z,27.25
2022-11-28T17:43:43.501Z,33.83
2022-11-28T17:46:13.234Z,31.67
2022-11-28T17:48:42.600Z,21.20
2022-11-28T17:51:10.603Z,23.25
2022-11-28T17:53:40.346Z,17.77
2022-11-28T17:56:13.113Z,18.50
2022-11-28T17:58:40.398Z,22.33
2022-11-28T18:01:12.703Z,13.70
2022-11-28T18:03:40.296Z,16.38
2022-11-28T18:06:13.836Z,15.52
2022-11-28T18:11:13.060Z,23.55
2022-11-28T18:13:44.383Z,27.67
2022-11-28T18:16:17.960Z,21.42
2022-11-28T18:18:45.663Z,12.55
2022-11-28T18:21:13.703Z,15.30
2022-11-28T18:23:45.948Z,12.32
2022-11-28T18:26:19.353Z,12.30
2022-11-28T18:28:47.292Z,11.90
2022-11-28T18:31:19.528Z,16.65
2022-11-28T18:33:47.103Z,16.35
2022-11-28T18:36:20.330Z,14.45
2022-11-28T18:38:47.560Z,31.08
2022-11-28T18:41:21.160Z,40.95
2022-11-28T18:43:48.385Z,34.63
2022-11-28T18:46:38.613Z,25.83
2022-11-28T18:49:05.951Z,20.02
2022-11-28T18:51:36.925Z,20.77
2022-11-28T18:54:07.673Z,26.25
2022-11-28T18:56:37.557Z,19.80
2022-11-28T18:59:04.783Z,21.15
2022-11-28T19:01:36.823Z,21.45
2022-11-28T19:04:07.306Z,19.30
2022-11-28T19:06:38.725Z,23.27
2022-11-28T19:09:12.767Z,20.83
2022-11-28T19:11:43.608Z,17.60
2022-11-28T19:14:16.151Z,18.00
2022-11-28T19:16:45.113Z,16.95
2022-11-28T19:19:12.358Z,19.30
2022-11-28T19:21:42.227Z,15.48
2022-11-28T19:24:12.448Z,17.15
2022-11-28T19:26:41.916Z,20.50
2022-11-28T19:29:09.470Z,21.90
2022-11-28T19:31:38.733Z,18.60
2022-11-28T19:34:14.521Z,23.83
2022-11-28T19:36:47.374Z,15.38
2022-11-28T19:39:22.036Z,18.33
2022-11-28T19:41:53.740Z,19.02
2022-11-28T19:44:29.028Z,20.92
2022-11-28T19:46:59.006Z,19.83
2022-11-28T19:49:26.812Z,22.17
2022-11-28T19:51:54.550Z,23.42
2022-11-28T19:54:21.943Z,17.00
2022-11-28T19:56:51.982Z,23.05
2022-11-28T19:59:19.787Z,19.25
2022-11-28T20:01:50.070Z,17.25
2022-11-28T20:04:17.898Z,18.42
2022-11-28T20:06:47.296Z,19.38
2022-11-28T20:09:15.091Z,15.20
2022-11-28T20:11:43.694Z,23.77
2022-11-28T20:14:18.754Z,26.45
2022-11-28T20:16:47.168Z,16.08
2022-11-28T20:19:14.972Z,18.42
2022-11-28T20:21:42.998Z,21.50
2022-11-28T20:24:11.064Z,16.90
2022-11-28T20:26:41.680Z,18.05
2022-11-28T20:29:11.871Z,12.80
2022-11-28T20:31:45.212Z,14.65
2022-11-28T20:36:41.333Z,15.98
2022-11-28T20:39:09.604Z,17.50
2022-11-28T20:41:39.829Z,16.48
2022-11-28T20:44:07.585Z,19.33
2022-11-28T20:46:35.634Z,14.75
2022-11-28T20:49:10.252Z,16.08
2022-11-28T20:51:37.539Z,16.58
2022-11-28T20:54:08.293Z,26.45
2022-11-28T20:57:12.868Z,13.30
2022-11-28T20:59:33.066Z,17.58
2022-11-28T21:02:00.398Z,14.70
2022-11-28T21:04:28.628Z,19.70
2022-11-28T21:07:03.590Z,29.67
2022-11-28T21:09:31.320Z,19.45
2022-11-28T21:12:00.698Z,26.98
2022-11-28T21:14:29.477Z,19.85
2022-11-28T21:16:57.934Z,19.05
2022-11-28T21:19:25.427Z,18.30
2022-11-28T21:21:53.227Z,17.00
2022-11-28T21:24:23.014Z,14.93
2022-11-28T21:26:54.473Z,18.80
2022-11-28T21:29:24.222Z,12.93
2022-11-28T21:31:51.704Z,15.70
2022-11-28T21:34:19.555Z,16.60
2022-11-28T21:36:47.656Z,23.65
2022-11-28T21:39:18.556Z,28.20
2022-11-28T21:41:48.919Z,26.52
2022-11-28T21:44:16.455Z,26.73
2022-11-28T21:46:46.694Z,27.00
2022-11-28T21:49:17.103Z,29.50
2022-11-28T21:51:49.489Z,26.90
2022-11-28T21:54:16.677Z,26.15
2022-11-28T21:56:43.875Z,24.63
2022-11-28T21:59:11.620Z,20.50
2022-11-28T22:01:39.908Z,25.60
2022-11-28T22:04:10.408Z,21.48
2022-11-28T22:06:38.116Z,19.27
2022-11-28T22:09:09.441Z,27.00
2022-11-28T22:11:38.748Z,18.77
2022-11-28T22:14:08.967Z,17.42
2022-11-28T22:16:36.708Z,18.20
2022-11-28T22:19:04.142Z,17.80
2022-11-28T22:24:22.147Z,17.77
2022-11-28T22:26:52.548Z,23.05
2022-11-28T22:29:20.243Z,16.05
2022-11-28T22:31:48.013Z,17.65
2022-11-28T22:34:19.897Z,14.40
2022-11-28T22:36:47.174Z,17.63
2022-11-28T22:39:16.856Z,15.88
2022-11-28T22:41:46.281Z,18.70
2022-11-28T22:44:13.944Z,23.77
2022-11-28T22:46:44.291Z,17.13
2022-11-28T22:49:11.762Z,21.65
2022-11-28T22:51:40.038Z,23.42
2022-11-28T22:54:07.567Z,21.02
2022-11-28T22:56:34.900Z,21.00
2022-11-28T22:59:10.636Z,20.63
2022-11-28T23:01:37.830Z,20.73
2022-11-28T23:04:05.369Z,19.52
2022-11-28T23:06:35.161Z,20.90
2022-11-28T23:09:09.554Z,23.85
2022-11-28T23:11:38.250Z,21.33
2022-11-28T23:14:06.414Z,22.40
2022-11-28T23:16:38.784Z,19.50
2022-11-28T23:19:12.349Z,27.15
2022-11-28T23:24:11.906Z,26.77
2022-11-28T23:26:39.268Z,19.05
2022-11-28T23:29:08.977Z,19.95
2022-11-28T23:31:42.042Z,19.85
2022-11-28T23:34:10.353Z,15.80
2022-11-28T23:36:47.456Z,21.25
2022-11-28T23:39:20.401Z,20.35
2022-11-28T23:41:50.348Z,22.92
2022-11-28T23:44:20.805Z,27.20
2022-11-28T23:46:48.390Z,30.40
2022-11-28T23:49:18.053Z,24.58
2022-11-28T23:51:45.699Z,19.80
2022-11-28T23:54:15.959Z,23.63
2022-11-28T23:56:46.749Z,18.50
2022-11-28T23:59:14.018Z,18.17
